Time;durP1;ratioP1;P1;durP2;ratioP2;P2;SDS_P1;SDS_P2;PMS_P1;PMS_P2;Temp;Humidity;BMP_temperature;BMP_pressure;BME280_temperature;BME280_humidity;BME280_pressure;Samples;Min_cycle;Max_cycle;Signal;HPM_P1;HPM_P2
2021/12/25 00:02:27;;;;;;;5.03;2.57;;;-6.30;99.90;;;;;;5005552;28;20107;-52
2021/12/25 00:04:53;;;;;;;4.47;2.42;;;-6.30;99.90;;;;;;5003098;28;20120;-54
2021/12/25 00:07:19;;;;;;;3.70;2.13;;;-6.30;99.90;;;;;;5005355;28;20122;-50
2021/12/25 00:09:44;;;;;;;4.07;2.50;;;-6.40;99.90;;;;;;5005902;28;20030;-50
2021/12/25 00:12:10;;;;;;;6.77;2.70;;;-6.40;99.90;;;;;;5004342;28;20018;-51
2021/12/25 00:14:36;;;;;;;4.10;2.85;;;-6.40;99.90;;;;;;5004881;28;20030;-50
2021/12/25 00:17:01;;;;;;;5.57;2.80;;;-6.40;99.90;;;;;;5004876;28;20396;-51
2021/12/25 00:19:27;;;;;;;4.40;3.23;;;-6.40;99.90;;;;;;5002128;28;20375;-50
2021/12/25 00:21:53;;;;;;;6.32;3.40;;;-6.40;99.90;;;;;;5008800;28;20049;-49
2021/12/25 00:24:18;;;;;;;4.43;2.40;;;-6.50;99.90;;;;;;5005460;28;20176;-49
2021/12/25 00:26:56;;;;;;;5.87;2.97;;;-6.50;99.90;;;;;;5009734;28;20018;-54
2021/12/25 00:30:08;;;;;;;5.30;2.83;;;-6.50;99.90;;;;;;5003776;28;20023;-52
2021/12/25 00:34:41;;;;;;;5.83;2.93;;;-6.60;99.90;;;;;;5010161;28;20018;-53
2021/12/25 00:37:08;;;;;;;5.72;3.15;;;-6.60;99.90;;;;;;5003956;28;20037;-54
2021/12/25 00:39:34;;;;;;;5.82;3.45;;;-6.60;99.90;;;;;;5007117;28;20145;-52
2021/12/25 00:42:03;;;;;;;6.97;3.37;;;-6.60;99.90;;;;;;5006537;28;20113;-52
2021/12/25 00:44:29;;;;;;;8.13;3.73;;;-6.60;99.90;;;;;;5007169;28;20030;-52
2021/12/25 00:46:55;;;;;;;7.67;3.57;;;-6.60;99.90;;;;;;5006220;28;20161;-55
2021/12/25 00:49:21;;;;;;;6.80;3.63;;;-6.70;99.90;;;;;;5008496;28;20029;-50
2021/12/25 00:51:47;;;;;;;5.47;3.10;;;-6.70;99.90;;;;;;5007364;28;20033;-54
2021/12/25 00:54:15;;;;;;;5.10;3.33;;;-6.70;99.90;;;;;;5003473;28;20393;-55
2021/12/25 00:56:40;;;;;;;6.80;3.37;;;-6.70;99.90;;;;;;5008444;28;20018;-53
2021/12/25 00:59:06;;;;;;;12.17;5.73;;;-6.80;99.90;;;;;;5006466;28;20036;-52
2021/12/25 01:01:31;;;;;;;24.70;10.53;;;-6.80;99.90;;;;;;5005649;28;20436;-52
2021/12/25 01:03:57;;;;;;;10.27;5.68;;;-6.80;99.90;;;;;;5010351;28;20022;-54
2021/12/25 01:06:23;;;;;;;9.40;5.37;;;-6.90;99.90;;;;;;5006427;28;20117;-51
2021/12/25 01:08:48;;;;;;;8.20;4.03;;;-6.90;99.90;;;;;;5005897;28;20543;-51
2021/12/25 01:11:15;;;;;;;7.67;3.33;;;-6.90;99.90;;;;;;5008159;28;20392;-54
2021/12/25 01:13:50;;;;;;;4.30;3.73;;;-6.90;99.90;;;;;;5007210;28;20021;-53
2021/12/25 01:16:52;;;;;;;6.78;3.03;;;-6.90;99.90;;;;;;5008825;28;20056;-55
2021/12/25 01:20:25;;;;;;;5.10;3.60;;;-6.90;99.90;;;;;;5002837;28;20048;-54
2021/12/25 01:25:05;;;;;;;7.18;4.00;;;-6.90;99.90;;;;;;5003397;28;20026;-55
2021/12/25 01:30:17;;;;;;;6.10;3.93;;;-6.90;99.90;;;;;;5001904;28;20239;-54
2021/12/25 01:48:50;;;;;;;5.00;2.50;;;-7.10;99.90;;;;;;4986428;28;20668;-53
2021/12/25 01:51:15;;;;;;;4.70;2.72;;;-7.10;99.90;;;;;;4997461;28;20037;-51
2021/12/25 01:53:41;;;;;;;4.40;2.93;;;-7.10;99.90;;;;;;5005918;28;20076;-54
2021/12/25 01:56:07;;;;;;;5.93;2.97;;;-7.20;99.90;;;;;;5004059;28;20333;-56
2021/12/25 01:58:34;;;;;;;3.93;2.90;;;-7.20;99.90;;;;;;5000378;28;20034;-54
2021/12/25 02:01:01;;;;;;;5.20;2.90;;;-7.20;99.90;;;;;;5000949;28;20116;-57
2021/12/25 02:03:30;;;;;;;2.27;1.90;;;-7.30;99.90;;;;;;4998961;28;20037;-53
2021/12/25 02:05:57;;;;;;;3.67;2.30;;;-7.30;99.90;;;;;;5001686;28;20045;-52
2021/12/25 02:08:23;;;;;;;5.70;2.42;;;-7.30;99.90;;;;;;5006276;28;20033;-53
2021/12/25 02:10:50;;;;;;;5.30;3.07;;;-7.30;99.90;;;;;;5005675;28;20122;-55
2021/12/25 02:13:17;;;;;;;6.47;2.40;;;-7.30;99.90;;;;;;5008691;28;20049;-52
2021/12/25 02:15:46;;;;;;;4.53;2.73;;;-7.30;99.90;;;;;;5003671;28;20449;-55
2021/12/25 02:21:11;;;;;;;8.07;2.20;;;-7.30;99.90;;;;;;4989659;28;20077;-53
2021/12/25 02:23:38;;;;;;;4.53;2.10;;;-7.30;99.90;;;;;;5006035;28;20028;-52
2021/12/25 02:26:04;;;;;;;3.33;2.30;;;-7.30;99.90;;;;;;5004275;28;20022;-54
2021/12/25 02:28:31;;;;;;;5.40;2.80;;;-7.40;99.90;;;;;;5006727;28;20057;-53
2021/12/25 02:31:01;;;;;;;3.80;2.40;;;-7.40;99.90;;;;;;5007088;28;20109;-51
2021/12/25 02:33:28;;;;;;;3.93;2.10;;;-7.50;99.90;;;;;;5000430;28;20063;-51
2021/12/25 02:35:55;;;;;;;3.77;2.97;;;-7.40;99.90;;;;;;5000941;28;20022;-54
2021/12/25 02:38:21;;;;;;;4.20;2.73;;;-7.40;99.90;;;;;;5003380;28;20125;-54
2021/12/25 02:40:46;;;;;;;5.17;3.00;;;-7.50;99.90;;;;;;5005754;28;20101;-52
2021/12/25 02:43:12;;;;;;;6.07;3.13;;;-7.50;99.90;;;;;;5002861;28;20101;-55
2021/12/25 02:45:38;;;;;;;3.53;2.90;;;-7.60;99.90;;;;;;5005199;28;20584;-55
2021/12/25 02:48:11;;;;;;;4.03;2.67;;;-7.60;99.90;;;;;;5003942;28;20097;-49
2021/12/25 02:50:38;;;;;;;4.67;2.50;;;-7.60;99.90;;;;;;5003717;28;20588;-52
2021/12/25 02:53:07;;;;;;;5.97;2.40;;;-7.60;99.90;;;;;;5001443;28;20018;-53
2021/12/25 02:55:33;;;;;;;8.33;3.27;;;-7.50;99.90;;;;;;5002822;28;20109;-54
2021/12/25 02:57:59;;;;;;;5.23;2.57;;;-7.50;99.90;;;;;;5006062;28;20030;-55
2021/12/25 03:00:28;;;;;;;5.90;2.70;;;-7.50;99.90;;;;;;5002308;28;20574;-55
2021/12/25 03:02:54;;;;;;;4.70;2.47;;;-7.50;99.90;;;;;;5002610;28;20029;-50
2021/12/25 03:05:20;;;;;;;6.47;3.40;;;-7.60;99.90;;;;;;5002864;28;20041;-53
2021/12/25 03:07:46;;;;;;;4.60;2.80;;;-7.60;99.90;;;;;;5008332;28;20399;-52
2021/12/25 03:10:16;;;;;;;3.20;2.27;;;-7.60;99.90;;;;;;5030274;22;20096;-48
2021/12/25 03:13:05;;;;;;;7.25;3.25;;;-7.60;99.90;;;;;;5008687;28;20022;-51
2021/12/25 03:15:45;;;;;;;4.05;2.40;;;-7.60;99.90;;;;;;5006017;28;20443;-52
2021/12/25 03:18:20;;;;;;;4.13;2.87;;;-7.60;99.90;;;;;;5008630;28;20072;-48
2021/12/25 03:20:49;;;;;;;4.87;3.03;;;-7.60;99.90;;;;;;5003629;28;20026;-50
2021/12/25 03:23:20;;;;;;;6.33;3.43;;;-7.70;99.90;;;;;;5000911;28;20042;-48
2021/12/25 03:25:47;;;;;;;5.43;3.13;;;-7.70;99.90;;;;;;5000605;28;20085;-49
2021/12/25 03:28:14;;;;;;;4.60;3.23;;;-7.70;99.90;;;;;;5000332;28;20560;-48
2021/12/25 03:30:40;;;;;;;5.63;3.47;;;-7.70;99.90;;;;;;5000010;28;20065;-51
2021/12/25 03:33:09;;;;;;;6.23;3.27;;;-7.70;99.90;;;;;;5000465;28;20105;-50
2021/12/25 03:35:35;;;;;;;3.90;2.63;;;-7.70;99.90;;;;;;5001827;28;20049;-52
2021/12/25 03:38:05;;;;;;;4.00;2.93;;;-7.60;99.90;;;;;;5002315;28;20069;-49
2021/12/25 03:40:31;;;;;;;5.50;2.77;;;-7.60;99.90;;;;;;5001830;28;20510;-49
2021/12/25 03:42:57;;;;;;;4.53;3.23;;;-7.70;99.90;;;;;;5001606;28;20038;-48
2021/12/25 03:45:23;;;;;;;9.70;3.50;;;-7.70;99.90;;;;;;5002078;28;20034;-49
2021/12/25 03:47:52;;;;;;;8.85;3.63;;;-7.70;99.90;;;;;;5000755;28;20461;-49
2021/12/25 03:58:19;;;;;;;6.13;3.33;;;-7.70;99.90;;;;;;4999257;28;20452;-48
2021/12/25 04:00:47;;;;;;;4.07;3.03;;;-7.70;99.90;;;;;;5000720;28;20018;-49
2021/12/25 04:03:28;;;;;;;3.93;2.87;;;-7.70;99.90;;;;;;5000914;28;20028;-48
2021/12/25 04:05:54;;;;;;;4.40;3.10;;;-7.70;99.90;;;;;;5001397;28;20406;-49
2021/12/25 04:08:24;;;;;;;6.90;3.10;;;-7.70;99.90;;;;;;5000089;28;20141;-49
2021/12/25 04:10:53;;;;;;;7.60;3.40;;;-7.70;99.90;;;;;;5001510;28;20549;-49
2021/12/25 04:13:19;;;;;;;4.37;3.10;;;-7.80;99.90;;;;;;4999876;28;20015;-50
2021/12/25 04:15:46;;;;;;;6.70;3.30;;;-7.70;99.90;;;;;;5001239;28;20116;-47
2021/12/25 04:18:11;;;;;;;5.47;2.70;;;-7.70;99.90;;;;;;5000982;28;20030;-49
2021/12/25 04:20:37;;;;;;;4.87;3.20;;;-7.80;99.90;;;;;;5000058;28;20049;-48
2021/12/25 04:23:07;;;;;;;3.83;2.50;;;-7.80;99.90;;;;;;5001137;28;20030;-49
2021/12/25 04:25:35;;;;;;;6.77;2.93;;;-7.80;99.90;;;;;;4999419;28;20038;-49
2021/12/25 04:28:11;;;;;;;5.27;2.70;;;-7.80;99.90;;;;;;5001480;28;20040;-49
2021/12/25 05:05:39;;;;;;;7.00;2.73;;;-7.90;99.90;;;;;;5002855;28;20061;-49
2021/12/25 05:08:05;;;;;;;5.27;3.57;;;-8.00;99.90;;;;;;5004155;28;20079;-48
2021/12/25 05:10:30;;;;;;;7.70;4.90;;;-8.00;99.90;;;;;;5003896;28;20049;-49
2021/12/25 05:12:56;;;;;;;6.97;4.27;;;-8.00;99.90;;;;;;5004262;28;20030;-49
2021/12/25 05:15:21;;;;;;;8.10;4.82;;;-8.00;99.90;;;;;;5003676;28;20041;-48
2021/12/25 05:17:47;;;;;;;5.70;4.30;;;-8.00;99.90;;;;;;5002586;28;20026;-48
2021/12/25 05:20:13;;;;;;;5.23;3.23;;;-8.00;99.90;;;;;;5003029;28;20048;-48
2021/12/25 05:22:38;;;;;;;5.07;3.93;;;-8.00;99.90;;;;;;5003113;28;20116;-49
2021/12/25 05:25:04;;;;;;;6.20;2.83;;;-7.90;99.90;;;;;;5003267;28;20076;-49
2021/12/25 05:27:30;;;;;;;8.07;3.30;;;-8.00;99.90;;;;;;5001776;28;20237;-48
2021/12/25 05:29:56;;;;;;;2.93;2.63;;;-8.00;99.90;;;;;;5003021;28;20116;-48
2021/12/25 05:32:21;;;;;;;4.57;2.90;;;-8.00;99.90;;;;;;5001540;28;20536;-50
2021/12/25 05:34:47;;;;;;;4.30;2.83;;;-8.00;99.90;;;;;;5002815;28;20121;-48
2021/12/25 05:37:14;;;;;;;4.97;2.80;;;-8.10;99.90;;;;;;5003193;28;20189;-48
2021/12/25 05:39:42;;;;;;;6.13;2.60;;;-8.10;99.90;;;;;;5003319;28;20396;-48
2021/12/25 05:42:08;;;;;;;4.70;2.83;;;-8.20;99.90;;;;;;5002785;28;20034;-47
2021/12/25 05:44:34;;;;;;;7.73;2.80;;;-8.20;99.90;;;;;;5002748;28;20032;-48
2021/12/25 05:47:00;;;;;;;2.50;2.30;;;-8.20;99.90;;;;;;5001680;28;20329;-47
2021/12/25 05:49:26;;;;;;;2.60;2.40;;;-8.20;99.90;;;;;;5003422;28;20117;-49
2021/12/25 05:51:52;;;;;;;3.43;2.17;;;-8.30;99.90;;;;;;5002846;28;20022;-48
2021/12/25 05:54:18;;;;;;;4.47;2.60;;;-8.30;99.90;;;;;;5001973;28;20022;-49
2021/12/25 05:56:43;;;;;;;4.13;2.40;;;-8.30;99.90;;;;;;5001806;28;20087;-49
2021/12/25 05:59:09;;;;;;;4.20;2.50;;;-8.30;99.90;;;;;;5001821;28;20477;-48
2021/12/25 06:01:35;;;;;;;2.60;1.93;;;-8.20;99.90;;;;;;5003542;28;20423;-48
2021/12/25 06:04:00;;;;;;;7.63;2.60;;;-8.20;99.90;;;;;;5003197;28;20610;-49
2021/12/25 06:06:26;;;;;;;5.97;2.50;;;-8.20;99.90;;;;;;4999931;28;20030;-50
2021/12/25 06:08:52;;;;;;;3.70;2.33;;;-8.20;99.90;;;;;;5001671;28;20057;-48
2021/12/25 06:11:18;;;;;;;5.13;2.40;;;-8.20;99.90;;;;;;5001677;28;20399;-49
2021/12/25 06:13:55;;;;;;;3.93;2.53;;;-8.20;99.90;;;;;;5004322;28;20026;-52
2021/12/25 06:16:21;;;;;;;3.53;2.50;;;-8.20;99.90;;;;;;5002709;28;20104;-48
